createdAt,value
2019-03-03T00:01:41.564Z,73.72
2019-03-03T00:04:10.818Z,73.45
2019-03-03T00:06:40.004Z,72.74
2019-03-03T00:09:09.258Z,72.43
2019-03-03T00:11:38.482Z,71.72
2019-03-03T00:14:07.666Z,71.58
2019-03-03T00:16:36.944Z,71.15
2019-03-03T00:19:06.122Z,71.12
2019-03-03T00:21:35.316Z,70.41
2019-03-03T00:24:04.653Z,70.24
2019-03-03T00:26:33.873Z,70.37
2019-03-03T00:29:03.276Z,69.63
2019-03-03T00:31:37.473Z,69.83
2019-03-03T00:34:06.662Z,70.07
2019-03-03T00:36:53.580Z,70.09
2019-03-03T00:39:41.083Z,70.01
2019-03-03T00:42:32.771Z,69.82
2019-03-03T00:45:19.740Z,69.75
2019-03-03T00:48:06.693Z,69.83
2019-03-03T00:50:53.579Z,70.23
2019-03-03T00:53:44.278Z,70.20
2019-03-03T00:56:28.088Z,70.36
2019-03-03T00:59:23.751Z,70.62
2019-03-03T01:01:58.049Z,70.66
2019-03-03T01:04:55.569Z,70.57
2019-03-03T01:07:43.704Z,70.78
2019-03-03T01:10:31.873Z,70.74
2019-03-03T01:13:20.019Z,70.97
2019-03-03T01:16:06.391Z,71.00
2019-03-03T01:19:00.726Z,70.88
2019-03-03T01:21:48.912Z,70.98
2019-03-03T01:24:43.327Z,70.67
2019-03-03T01:27:12.554Z,70.80
2019-03-03T01:29:41.757Z,70.93
2019-03-03T01:32:10.960Z,70.78
2019-03-03T01:34:40.194Z,70.96
2019-03-03T01:37:09.390Z,70.91
2019-03-03T01:39:38.599Z,71.07
2019-03-03T01:42:07.848Z,70.72
2019-03-03T01:44:37.047Z,70.95
2019-03-03T01:47:06.246Z,70.58
2019-03-03T01:49:35.445Z,70.54
2019-03-03T01:52:04.672Z,70.42
2019-03-03T01:54:33.853Z,70.27
2019-03-03T01:57:03.083Z,70.24
2019-03-03T01:59:32.271Z,70.07
2019-03-03T02:02:01.450Z,70.06
2019-03-03T02:04:30.686Z,69.75
2019-03-03T02:06:59.889Z,69.69
2019-03-03T02:09:29.483Z,69.68
2019-03-03T02:11:58.697Z,69.57
2019-03-03T02:14:27.901Z,69.51
2019-03-03T02:16:57.075Z,69.28
2019-03-03T02:19:26.285Z,69.34
2019-03-03T02:21:55.483Z,69.06
2019-03-03T02:24:24.681Z,69.16
2019-03-03T02:26:53.888Z,69.09
2019-03-03T02:29:23.097Z,68.92
2019-03-03T02:31:52.281Z,68.80
2019-03-03T02:34:21.513Z,68.67
2019-03-03T02:36:50.842Z,68.49
2019-03-03T02:39:20.298Z,68.11
2019-03-03T02:41:49.594Z,67.95
2019-03-03T02:44:18.780Z,67.72
2019-03-03T02:46:47.988Z,67.54
2019-03-03T02:49:17.201Z,67.47
2019-03-03T02:51:46.397Z,67.53
2019-03-03T02:54:15.589Z,67.26
2019-03-03T02:56:44.837Z,66.97
2019-03-03T02:59:14.042Z,67.00
2019-03-03T03:01:56.197Z,66.40
2019-03-03T03:04:26.479Z,66.85
2019-03-03T03:07:12.562Z,66.42
2019-03-03T03:10:00.697Z,66.33
2019-03-03T03:13:07.149Z,66.30
2019-03-03T03:15:47.572Z,66.08
2019-03-03T03:18:29.880Z,65.64
2019-03-03T03:21:04.289Z,65.36
2019-03-03T03:23:52.484Z,65.39
2019-03-03T03:26:28.481Z,64.96
2019-03-03T03:29:15.388Z,64.58
2019-03-03T03:32:03.578Z,64.41
2019-03-03T03:34:57.858Z,63.99
2019-03-03T03:37:38.722Z,64.32
2019-03-03T03:40:37.917Z,64.57
2019-03-03T03:43:14.087Z,63.97
2019-03-03T03:46:07.448Z,64.10
2019-03-03T03:48:43.693Z,63.81
2019-03-03T03:51:28.674Z,64.12
2019-03-03T03:54:06.446Z,63.78
2019-03-03T03:56:54.700Z,63.79
2019-03-03T03:59:29.729Z,63.52
2019-03-03T04:02:16.364Z,63.33
2019-03-03T04:04:52.593Z,63.35
2019-03-03T04:07:28.998Z,63.38
2019-03-03T04:10:09.625Z,63.56
2019-03-03T04:13:00.563Z,63.38
2019-03-03T04:15:49.704Z,63.33
2019-03-03T04:18:37.061Z,63.67
2019-03-03T04:21:16.869Z,63.37
2019-03-03T04:24:07.863Z,63.15
2019-03-03T04:26:54.738Z,63.24
2019-03-03T04:29:49.103Z,62.93
2019-03-03T04:32:33.519Z,62.79
2019-03-03T04:35:21.672Z,62.67
2019-03-03T04:38:07.359Z,62.78
2019-03-03T04:40:46.605Z,62.63
2019-03-03T04:43:40.611Z,62.89
2019-03-03T04:46:20.044Z,63.10
2019-03-03T04:49:05.689Z,62.54
2019-03-03T04:51:56.775Z,62.40
2019-03-03T04:55:03.338Z,62.49
2019-03-03T04:58:03.751Z,62.75
2019-03-03T05:01:04.087Z,62.83
2019-03-03T05:03:42.274Z,63.03
2019-03-03T05:06:20.668Z,63.11
2019-03-03T05:08:57.250Z,63.17
2019-03-03T05:12:19.493Z,63.34
2019-03-03T05:14:49.292Z,63.39
2019-03-03T05:17:25.486Z,63.42
2019-03-03T05:19:57.842Z,63.34
2019-03-03T05:22:27.038Z,63.42
2019-03-03T05:24:56.230Z,63.51
2019-03-03T05:27:25.433Z,63.52
2019-03-03T05:29:54.615Z,63.37
2019-03-03T05:32:23.834Z,63.52
2019-03-03T05:34:53.038Z,63.53
2019-03-03T05:37:22.234Z,63.62
2019-03-03T05:39:51.555Z,63.77
2019-03-03T05:42:20.778Z,63.88
2019-03-03T05:44:49.967Z,63.87
2019-03-03T05:47:19.153Z,63.81
2019-03-03T05:49:48.355Z,63.73
2019-03-03T05:52:17.565Z,63.82
2019-03-03T05:54:46.773Z,63.91
2019-03-03T05:57:15.996Z,63.69
2019-03-03T05:59:45.229Z,63.74
2019-03-03T06:02:14.473Z,64.16
2019-03-03T06:04:43.677Z,64.18
2019-03-03T06:07:12.858Z,64.10
2019-03-03T06:09:43.637Z,64.21
2019-03-03T06:12:12.853Z,64.12
2019-03-03T06:14:42.045Z,64.31
2019-03-03T06:17:11.240Z,64.46
2019-03-03T06:19:40.464Z,64.40
2019-03-03T06:22:09.675Z,64.46
2019-03-03T06:24:38.854Z,64.64
2019-03-03T06:27:08.098Z,64.82
2019-03-03T06:29:37.284Z,65.09
2019-03-03T06:32:06.494Z,65.00
2019-03-03T06:34:35.712Z,65.14
2019-03-03T06:37:04.932Z,65.41
2019-03-03T06:39:34.134Z,65.27
2019-03-03T06:42:03.394Z,65.31
2019-03-03T06:44:32.547Z,65.37
2019-03-03T06:47:01.755Z,65.23
2019-03-03T06:49:30.977Z,65.32
2019-03-03T06:52:00.186Z,65.13
2019-03-03T06:54:29.398Z,65.09
2019-03-03T06:56:58.614Z,64.98
2019-03-03T06:59:27.837Z,64.99
2019-03-03T07:01:57.058Z,64.62
2019-03-03T07:04:26.295Z,65.09
2019-03-03T07:06:55.505Z,65.05
2019-03-03T07:09:24.737Z,65.23
2019-03-03T07:11:53.987Z,65.28
2019-03-03T07:14:23.173Z,65.37
2019-03-03T07:16:52.395Z,65.51
2019-03-03T07:19:21.621Z,65.53
2019-03-03T07:21:50.837Z,65.81
2019-03-03T07:24:20.102Z,65.78
2019-03-03T07:26:49.597Z,65.53
2019-03-03T07:29:18.816Z,65.67
2019-03-03T07:31:48.033Z,65.85
2019-03-03T07:34:17.273Z,65.83
2019-03-03T07:36:46.488Z,65.95
2019-03-03T07:39:17.822Z,66.13
2019-03-03T07:41:47.346Z,65.73
2019-03-03T07:44:16.539Z,65.81
2019-03-03T07:46:45.773Z,66.06
2019-03-03T07:49:14.982Z,66.36
2019-03-03T07:51:44.156Z,67.02
2019-03-03T07:54:13.452Z,67.18
2019-03-03T07:56:42.650Z,67.88
2019-03-03T07:59:11.862Z,67.91
2019-03-03T08:01:41.088Z,68.53
2019-03-03T08:04:10.361Z,68.51
2019-03-03T08:06:39.560Z,68.97
2019-03-03T08:09:09.557Z,69.27
2019-03-03T08:11:38.804Z,69.21
2019-03-03T08:14:07.992Z,69.53
2019-03-03T08:16:37.326Z,69.83
2019-03-03T08:19:06.526Z,70.14
2019-03-03T08:21:35.789Z,70.74
2019-03-03T08:24:05.019Z,71.20
2019-03-03T08:26:34.213Z,70.91
2019-03-03T08:29:03.489Z,70.85
2019-03-03T08:31:32.679Z,71.72
2019-03-03T08:34:01.871Z,71.91
2019-03-03T08:36:31.246Z,72.20
2019-03-03T08:39:00.381Z,72.46
2019-03-03T08:41:29.996Z,73.13
2019-03-03T08:44:06.845Z,73.66
2019-03-03T08:46:54.991Z,74.29
2019-03-03T08:49:35.555Z,74.60
2019-03-03T08:52:29.725Z,74.51
2019-03-03T08:55:15.114Z,74.66
2019-03-03T08:58:02.055Z,75.52
2019-03-03T09:00:54.324Z,75.54
2019-03-03T09:03:51.760Z,76.28
2019-03-03T09:06:29.731Z,76.30
2019-03-03T09:09:16.779Z,76.96
2019-03-03T09:12:07.925Z,76.79
2019-03-03T09:14:54.565Z,77.45
2019-03-03T09:17:45.558Z,77.27
2019-03-03T09:20:32.458Z,77.25
2019-03-03T09:23:39.042Z,76.62
2019-03-03T09:26:26.110Z,77.53
2019-03-03T09:29:23.214Z,77.70
2019-03-03T09:32:08.268Z,78.31
2019-03-03T09:34:56.452Z,78.12
2019-03-03T09:37:50.568Z,78.30
2019-03-03T09:40:28.617Z,78.39
2019-03-03T09:43:31.820Z,78.46
2019-03-03T09:46:26.745Z,78.49
2019-03-03T09:49:09.743Z,78.82
2019-03-03T09:51:48.387Z,78.56
2019-03-03T09:54:28.813Z,78.44
2019-03-03T09:57:22.980Z,78.81
2019-03-03T10:00:02.741Z,78.82
2019-03-03T10:02:46.919Z,79.01
2019-03-03T10:05:41.656Z,79.40
2019-03-03T10:08:25.766Z,79.33
2019-03-03T10:11:06.813Z,79.82
2019-03-03T10:13:57.784Z,79.54
2019-03-03T10:16:42.579Z,79.81
2019-03-03T10:19:36.802Z,79.80
2019-03-03T10:22:26.496Z,79.30
2019-03-03T10:25:13.223Z,79.89
2019-03-03T10:28:00.898Z,79.38
2019-03-03T10:30:45.841Z,79.81
2019-03-03T10:33:28.662Z,79.08
2019-03-03T10:36:31.851Z,79.80
2019-03-03T10:39:18.414Z,78.57
2019-03-03T10:42:07.684Z,79.01
2019-03-03T10:44:58.699Z,79.05
2019-03-03T10:47:40.050Z,78.79
2019-03-03T10:50:31.595Z,78.62
2019-03-03T10:53:19.943Z,78.47
2019-03-03T10:56:27.245Z,78.70
2019-03-03T10:59:27.870Z,78.58
2019-03-03T11:02:06.639Z,78.32
2019-03-03T11:05:10.584Z,78.51
2019-03-03T11:08:13.691Z,77.66
2019-03-03T11:11:03.323Z,78.08
2019-03-03T11:13:50.813Z,78.28
2019-03-03T11:16:38.145Z,78.52
2019-03-03T11:19:44.428Z,78.62
2019-03-03T11:22:25.876Z,78.62
2019-03-03T11:25:20.438Z,78.14
2019-03-03T11:28:07.168Z,78.18
2019-03-03T11:30:49.367Z,78.24
2019-03-03T11:33:40.626Z,78.61
2019-03-03T11:36:28.869Z,77.98
2019-03-03T11:39:08.055Z,78.26
2019-03-03T11:41:44.514Z,77.92
2019-03-03T11:44:44.826Z,77.59
2019-03-03T11:47:48.258Z,77.96
2019-03-03T11:50:35.187Z,77.83
2019-03-03T11:53:24.966Z,77.23
2019-03-03T11:56:22.379Z,77.55
2019-03-03T11:59:09.486Z,77.43
2019-03-03T12:01:57.061Z,77.90
2019-03-03T12:04:45.327Z,78.06
2019-03-03T12:07:36.772Z,77.85
2019-03-03T12:10:28.720Z,77.37
2019-03-03T12:13:07.381Z,77.70
2019-03-03T12:16:01.689Z,77.64
2019-03-03T12:18:49.845Z,77.85
2019-03-03T12:21:36.950Z,77.56
2019-03-03T12:24:19.438Z,78.12
2019-03-03T12:27:22.621Z,77.74
2019-03-03T12:30:15.411Z,77.38
2019-03-03T12:33:00.251Z,77.19
2019-03-03T12:35:36.967Z,77.07
2019-03-03T12:38:19.787Z,77.36
2019-03-03T12:41:09.313Z,76.87
2019-03-03T12:44:07.003Z,76.84
2019-03-03T12:46:52.589Z,76.90
2019-03-03T12:49:38.688Z,76.83
2019-03-03T12:52:33.021Z,77.31
2019-03-03T12:55:39.588Z,76.62
2019-03-03T12:58:33.419Z,76.68
2019-03-03T13:01:20.184Z,77.32
2019-03-03T13:03:58.446Z,77.02
2019-03-03T13:06:49.442Z,77.44
2019-03-03T13:09:26.134Z,76.58
2019-03-03T13:12:07.107Z,76.60
2019-03-03T13:14:56.384Z,77.45
2019-03-03T13:17:50.743Z,77.13
2019-03-03T13:20:36.218Z,76.76
2019-03-03T13:23:27.831Z,77.08
2019-03-03T13:26:16.097Z,76.81
2019-03-03T13:29:02.990Z,76.74
2019-03-03T13:31:45.564Z,76.66
2019-03-03T13:34:33.858Z,76.35
2019-03-03T13:37:12.607Z,76.06
2019-03-03T13:40:06.164Z,76.22
2019-03-03T13:42:47.145Z,75.46
2019-03-03T13:45:16.771Z,76.06
2019-03-03T13:47:46.085Z,76.07
2019-03-03T13:50:16.947Z,76.06
2019-03-03T13:52:46.429Z,75.40
2019-03-03T13:55:16.538Z,75.57
2019-03-03T13:57:45.920Z,75.03
2019-03-03T14:00:20.139Z,75.63
2019-03-03T14:02:50.291Z,75.68
2019-03-03T14:05:21.546Z,75.15
2019-03-03T14:07:51.057Z,74.69
2019-03-03T14:10:20.455Z,74.23
2019-03-03T14:12:49.823Z,74.54
2019-03-03T14:15:19.829Z,74.62
2019-03-03T14:17:49.320Z,74.54
2019-03-03T14:20:20.650Z,74.33
2019-03-03T14:22:50.028Z,74.52
2019-03-03T14:25:19.629Z,74.84
2019-03-03T14:27:49.051Z,74.85
2019-03-03T14:30:20.425Z,74.90
2019-03-03T14:32:49.869Z,75.14
2019-03-03T14:35:19.691Z,75.36
2019-03-03T14:37:48.948Z,74.98
2019-03-03T14:40:19.076Z,74.63
2019-03-03T14:42:48.474Z,74.56
2019-03-03T14:45:17.937Z,74.66
2019-03-03T14:47:47.381Z,74.26
2019-03-03T14:50:17.645Z,74.93
2019-03-03T14:52:48.527Z,74.91
2019-03-03T14:55:19.058Z,75.44
2019-03-03T14:57:49.824Z,75.84
2019-03-03T15:00:26.004Z,75.67
2019-03-03T15:02:55.543Z,75.62
2019-03-03T15:05:24.778Z,75.60
2019-03-03T15:07:54.037Z,75.73
2019-03-03T15:10:23.369Z,75.67
2019-03-03T15:12:52.709Z,76.03
2019-03-03T15:15:22.743Z,75.83
2019-03-03T15:17:52.134Z,75.86
2019-03-03T15:20:21.589Z,76.23
2019-03-03T15:22:50.897Z,76.13
2019-03-03T15:25:20.150Z,76.60
2019-03-03T15:27:49.690Z,76.25
2019-03-03T15:30:20.117Z,76.45
2019-03-03T15:32:49.789Z,76.53
2019-03-03T15:35:19.283Z,76.37
2019-03-03T15:37:48.746Z,76.80
2019-03-03T15:40:18.988Z,76.94
2019-03-03T15:42:48.461Z,77.42
2019-03-03T15:45:19.508Z,77.42
2019-03-03T15:47:48.854Z,77.68
2019-03-03T15:50:19.603Z,77.33
2019-03-03T15:52:49.339Z,76.95
2019-03-03T15:55:18.590Z,77.32
2019-03-03T15:57:48.000Z,77.19
2019-03-03T16:00:22.827Z,77.43
2019-03-03T16:02:52.081Z,77.39
2019-03-03T16:05:22.261Z,77.55
2019-03-03T16:07:51.635Z,77.06
2019-03-03T16:10:21.107Z,77.14
2019-03-03T16:12:50.566Z,77.24
2019-03-03T16:15:19.843Z,77.23
2019-03-03T16:17:49.416Z,77.33
2019-03-03T16:20:19.447Z,77.68
2019-03-03T16:22:48.757Z,76.94
2019-03-03T16:25:19.467Z,77.37
2019-03-03T16:27:49.382Z,77.62
2019-03-03T16:30:19.888Z,77.43
2019-03-03T16:32:49.433Z,77.39
2019-03-03T16:35:19.228Z,77.00
2019-03-03T16:37:48.693Z,77.03
2019-03-03T16:40:20.043Z,77.17
2019-03-03T16:42:49.474Z,77.41
2019-03-03T16:45:19.543Z,77.43
2019-03-03T16:47:48.897Z,77.03
2019-03-03T16:50:18.770Z,76.97
2019-03-03T16:52:49.301Z,76.53
2019-03-03T16:55:18.884Z,76.41
2019-03-03T16:57:48.997Z,75.98
2019-03-03T17:00:20.106Z,75.98
2019-03-03T17:02:49.495Z,76.10
2019-03-03T17:05:19.640Z,75.84
2019-03-03T17:07:49.381Z,75.96
2019-03-03T17:10:38.066Z,76.05
2019-03-03T17:13:07.344Z,76.14
2019-03-03T17:15:36.703Z,75.77
2019-03-03T17:18:06.195Z,75.50
2019-03-03T17:20:36.480Z,74.77
2019-03-03T17:23:06.323Z,74.90
2019-03-03T17:25:36.611Z,74.86
2019-03-03T17:28:06.824Z,74.30
2019-03-03T17:30:36.680Z,74.18
2019-03-03T17:33:06.550Z,73.83
2019-03-03T17:35:36.319Z,73.57
2019-03-03T17:38:08.690Z,73.68
2019-03-03T17:40:38.576Z,72.61
2019-03-03T17:43:07.998Z,72.59
2019-03-03T17:45:37.419Z,72.92
2019-03-03T17:48:06.707Z,72.78
2019-03-03T17:50:36.063Z,72.23
2019-03-03T17:53:05.591Z,72.40
2019-03-03T17:55:34.880Z,72.21
2019-03-03T17:58:05.095Z,71.89
2019-03-03T18:00:36.528Z,71.88
2019-03-03T18:03:06.611Z,71.58
2019-03-03T18:05:36.044Z,71.46
2019-03-03T18:08:05.617Z,71.25
2019-03-03T18:10:34.964Z,71.57
2019-03-03T18:13:04.360Z,71.24
2019-03-03T18:15:33.883Z,70.85
2019-03-03T18:18:03.824Z,70.58
2019-03-03T18:20:33.313Z,70.21
2019-03-03T18:23:03.041Z,70.89
2019-03-03T18:25:32.315Z,70.72
2019-03-03T18:28:01.704Z,70.80
2019-03-03T18:30:30.933Z,70.38
2019-03-03T18:33:00.370Z,70.56
2019-03-03T18:35:29.787Z,70.88
2019-03-03T18:37:59.886Z,70.17
2019-03-03T18:40:29.378Z,70.00
2019-03-03T18:42:58.709Z,70.32
2019-03-03T18:45:28.882Z,70.33
2019-03-03T18:47:58.204Z,69.92
2019-03-03T18:50:29.413Z,69.70
2019-03-03T18:52:59.901Z,69.68
2019-03-03T18:55:30.464Z,69.76
2019-03-03T18:58:00.486Z,69.40
2019-03-03T19:00:30.529Z,69.16
2019-03-03T19:02:59.809Z,69.04
2019-03-03T19:05:29.573Z,69.42
2019-03-03T19:07:58.990Z,69.06
2019-03-03T19:10:28.707Z,68.97
2019-03-03T19:12:58.423Z,67.98
2019-03-03T19:15:28.391Z,67.97
2019-03-03T19:17:57.988Z,68.17
2019-03-03T19:20:28.348Z,68.84
2019-03-03T19:22:58.159Z,68.48
2019-03-03T19:25:27.986Z,67.94
2019-03-03T19:27:59.396Z,68.11
2019-03-03T19:30:31.372Z,67.36
2019-03-03T19:33:05.249Z,67.63
2019-03-03T19:35:34.805Z,67.80
2019-03-03T19:38:04.397Z,67.24
2019-03-03T19:40:34.206Z,66.93
2019-03-03T19:43:03.931Z,66.87
2019-03-03T19:45:34.452Z,66.73
2019-03-03T19:48:04.002Z,66.00
2019-03-03T19:50:34.446Z,65.94
2019-03-03T19:53:05.034Z,65.40
2019-03-03T19:55:35.418Z,65.75
2019-03-03T19:58:06.581Z,66.11
2019-03-03T20:00:39.082Z,66.40
2019-03-03T20:03:09.425Z,66.12
2019-03-03T20:05:40.827Z,65.68
2019-03-03T20:08:13.004Z,66.13
2019-03-03T20:10:42.601Z,65.67
2019-03-03T20:13:13.375Z,66.17
2019-03-03T20:15:43.356Z,65.35
2019-03-03T20:18:13.265Z,65.21
2019-03-03T20:20:43.441Z,65.21
2019-03-03T20:23:13.097Z,65.01
2019-03-03T20:25:42.800Z,65.11
2019-03-03T20:28:12.874Z,65.42
2019-03-03T20:30:43.330Z,65.11
2019-03-03T20:33:13.235Z,65.16
2019-03-03T20:35:42.857Z,64.98
2019-03-03T20:38:12.358Z,65.35
2019-03-03T20:40:42.081Z,65.38
2019-03-03T20:43:11.950Z,65.06
2019-03-03T20:45:41.843Z,64.83
2019-03-03T20:48:11.520Z,65.03
2019-03-03T20:50:41.150Z,65.02
2019-03-03T20:53:11.551Z,64.73
2019-03-03T20:55:41.033Z,64.99
2019-03-03T20:58:10.442Z,64.63
2019-03-03T21:00:40.275Z,64.64
2019-03-03T21:03:10.195Z,64.61
2019-03-03T21:05:39.889Z,64.41
2019-03-03T21:08:09.354Z,64.80
2019-03-03T21:10:39.375Z,64.39
2019-03-03T21:13:08.939Z,64.71
2019-03-03T21:15:38.663Z,64.68
2019-03-03T21:18:08.275Z,64.67
2019-03-03T21:20:38.023Z,64.17
2019-03-03T21:23:07.338Z,64.37
2019-03-03T21:25:36.671Z,64.71
2019-03-03T21:28:05.872Z,64.60
2019-03-03T21:30:35.525Z,64.90
2019-03-03T21:33:05.134Z,64.49
2019-03-03T21:35:34.596Z,64.78
2019-03-03T21:38:04.076Z,64.41
2019-03-03T21:40:33.372Z,64.70
2019-03-03T21:43:02.662Z,64.33
2019-03-03T21:45:32.170Z,64.03
2019-03-03T21:48:01.474Z,64.33
2019-03-03T21:50:30.715Z,64.63
2019-03-03T21:52:59.950Z,66.45
2019-03-03T21:55:29.268Z,66.06
2019-03-03T21:57:58.487Z,66.37
2019-03-03T22:00:32.718Z,66.97
2019-03-03T22:03:01.947Z,67.06
2019-03-03T22:05:31.228Z,67.57
2019-03-03T22:08:00.465Z,67.65
2019-03-03T22:10:30.152Z,67.65
2019-03-03T22:13:01.509Z,67.64
2019-03-03T22:15:30.762Z,67.75
2019-03-03T22:18:00.094Z,67.38
2019-03-03T22:20:29.306Z,67.51
2019-03-03T22:22:58.540Z,67.40
2019-03-03T22:25:27.885Z,66.81
2019-03-03T22:27:57.136Z,66.92
2019-03-03T22:30:26.441Z,67.04
2019-03-03T22:32:55.659Z,66.87
2019-03-03T22:35:25.175Z,66.80
2019-03-03T22:37:54.403Z,66.53
2019-03-03T22:40:24.325Z,66.82
2019-03-03T22:42:53.557Z,66.51
2019-03-03T22:45:23.237Z,66.71
2019-03-03T22:47:52.562Z,66.12
2019-03-03T22:50:22.014Z,65.85
2019-03-03T22:52:51.232Z,66.24
2019-03-03T22:55:20.892Z,65.89
2019-03-03T22:57:50.110Z,65.94
2019-03-03T23:00:55.000Z,65.84
2019-03-03T23:03:56.920Z,65.75
2019-03-03T23:06:57.048Z,65.69
2019-03-03T23:10:05.613Z,65.45
2019-03-03T23:12:56.436Z,65.55
2019-03-03T23:16:00.389Z,65.30
2019-03-03T23:19:31.435Z,65.30
2019-03-03T23:22:59.571Z,65.43
2019-03-03T23:25:52.299Z,65.24
2019-03-03T23:28:22.571Z,65.50
2019-03-03T23:30:52.759Z,65.58
2019-03-03T23:33:21.969Z,65.58
2019-03-03T23:35:51.328Z,65.47
2019-03-03T23:38:20.549Z,65.70
2019-03-03T23:40:49.747Z,65.58
2019-03-03T23:43:19.371Z,65.51
2019-03-03T23:45:48.591Z,65.37
2019-03-03T23:48:17.801Z,65.03
2019-03-03T23:50:47.075Z,65.27
2019-03-03T23:53:16.282Z,65.17
2019-03-03T23:55:45.505Z,65.07
2019-03-03T23:58:14.759Z,65.23
